createdAt,value
2022-12-03T00:00:26.305Z,102324.66
2022-12-03T00:02:53.104Z,102328.03
2022-12-03T00:05:21.243Z,102330.56
2022-12-03T00:07:47.935Z,102319.09
2022-12-03T00:10:14.700Z,102309.53
2022-12-03T00:12:41.293Z,102319.09
2022-12-03T00:15:09.876Z,102311.22
2022-12-03T00:17:36.578Z,102310.22
2022-12-03T00:20:04.254Z,102312.25
2022-12-03T00:22:33.237Z,102313.19
2022-12-03T00:25:00.197Z,102318.44
2022-12-03T00:27:26.974Z,102307.19
2022-12-03T00:29:53.607Z,102310.75
2022-12-03T00:32:20.406Z,102308.03
2022-12-03T00:34:47.026Z,102307.81
2022-12-03T00:37:14.361Z,102299.28
2022-12-03T00:39:42.433Z,102303.19
2022-12-03T00:42:09.063Z,102297.31
2022-12-03T00:44:35.714Z,102295.41
2022-12-03T00:47:02.421Z,102297.84
2022-12-03T00:49:29.118Z,102296.78
2022-12-03T00:51:55.898Z,102294.25
2022-12-03T00:54:26.825Z,102293.31
2022-12-03T00:56:58.625Z,102296.13
2022-12-03T00:59:25.507Z,102298.97
2022-12-03T01:01:52.268Z,102301.72
2022-12-03T01:04:19.052Z,102294.56
2022-12-03T01:06:45.751Z,102300.56
2022-12-03T01:09:12.326Z,102302.25
2022-12-03T01:11:39.048Z,102303.09
2022-12-03T01:14:09.609Z,102300.47
2022-12-03T01:16:36.988Z,102298.78
2022-12-03T01:19:04.747Z,102296.97
2022-12-03T01:21:31.787Z,102294.44
2022-12-03T01:23:58.631Z,102291.91
2022-12-03T01:26:25.658Z,102287.63
2022-12-03T01:28:52.973Z,102289.94
2022-12-03T01:31:40.164Z,102289.94
2022-12-03T01:34:06.801Z,102289.19
2022-12-03T01:36:37.081Z,102294.34
2022-12-03T01:39:04.694Z,102289.09
2022-12-03T01:41:32.257Z,102286.47
2022-12-03T01:43:59.819Z,102284.78
2022-12-03T01:46:35.013Z,102278.69
2022-12-03T01:49:01.838Z,102287.31
2022-12-03T01:51:29.757Z,102271.53
2022-12-03T01:53:57.548Z,102273.31
2022-12-03T01:56:24.430Z,102274.91
2022-12-03T01:58:51.091Z,102279.19
2022-12-03T02:01:19.088Z,102274.78
2022-12-03T02:03:47.402Z,102271.31
2022-12-03T02:06:16.625Z,102279.19
2022-12-03T02:08:43.680Z,102276.56
2022-12-03T02:11:19.193Z,102274.06
2022-12-03T02:13:47.460Z,102277.53
2022-12-03T02:16:14.177Z,102278.25
2022-12-03T02:18:43.145Z,102278.25
2022-12-03T02:21:17.647Z,102273.94
2022-12-03T02:23:53.309Z,102268.69
2022-12-03T02:26:21.709Z,102275.75
2022-12-03T02:28:48.398Z,102274.78
2022-12-03T02:31:15.226Z,102267.72
2022-12-03T02:33:42.188Z,102273.84
2022-12-03T02:36:09.613Z,102266.78
2022-12-03T02:38:36.427Z,102270.25
2022-12-03T02:41:07.258Z,102266.69
2022-12-03T02:43:35.405Z,102267.63
2022-12-03T02:46:03.665Z,102266.78
2022-12-03T02:48:34.600Z,102262.38
2022-12-03T02:51:04.645Z,102261.34
2022-12-03T02:53:35.729Z,102265.00
2022-12-03T02:56:04.521Z,102263.22
2022-12-03T02:58:32.885Z,102255.22
2022-12-03T03:01:03.930Z,102259.66
2022-12-03T03:03:32.408Z,102260.50
2022-12-03T03:06:02.585Z,102259.41
2022-12-03T03:08:30.873Z,102254.91
2022-12-03T03:11:00.179Z,102254.06
2022-12-03T03:13:29.221Z,102255.75
2022-12-03T03:15:56.042Z,102257.63
2022-12-03T03:18:24.289Z,102257.53
2022-12-03T03:20:51.127Z,102256.06
2022-12-03T03:23:20.260Z,102259.66
2022-12-03T03:25:49.540Z,102264.06
2022-12-03T03:28:16.806Z,102253.63
2022-12-03T03:30:44.261Z,102258.91
2022-12-03T03:33:13.036Z,102251.25
2022-12-03T03:35:41.992Z,102252.91
2022-12-03T03:38:09.944Z,102255.53
2022-12-03T03:40:37.476Z,102253.13
2022-12-03T03:43:05.256Z,102248.72
2022-12-03T03:45:31.941Z,102251.53
2022-12-03T03:47:59.780Z,102241.34
2022-12-03T03:50:28.419Z,102234.41
2022-12-03T03:52:57.633Z,102237.88
2022-12-03T03:55:24.781Z,102237.13
2022-12-03T03:57:51.683Z,102248.50
2022-12-03T04:00:19.036Z,102230.31
2022-12-03T04:02:46.029Z,102238.19
2022-12-03T04:05:17.353Z,102229.56
2022-12-03T04:07:44.094Z,102232.19
2022-12-03T04:10:32.356Z,102231.34
2022-12-03T04:12:59.448Z,102239.34
2022-12-03T04:15:26.381Z,102241.03
2022-12-03T04:18:25.137Z,102238.41
2022-12-03T04:20:51.796Z,102238.19
2022-12-03T04:23:18.387Z,102237.97
2022-12-03T04:26:05.061Z,102225.56
2022-12-03T04:28:49.593Z,102236.28
2022-12-03T04:31:36.851Z,102232.09
2022-12-03T04:34:22.177Z,102232.19
2022-12-03T04:36:48.815Z,102229.66
2022-12-03T04:39:15.711Z,102226.28
2022-12-03T04:41:43.663Z,102223.56
2022-12-03T04:44:28.807Z,102226.00
2022-12-03T04:46:55.464Z,102224.06
2022-12-03T04:49:22.481Z,102229.25
2022-12-03T04:51:49.362Z,102223.88
2022-12-03T04:54:16.000Z,102231.16
2022-12-03T04:56:44.254Z,102222.53
2022-12-03T04:59:15.775Z,102227.88
2022-12-03T05:01:43.659Z,102226.28
2022-12-03T05:04:10.920Z,102225.44
2022-12-03T05:06:37.693Z,102223.78
2022-12-03T05:09:04.869Z,102224.50
2022-12-03T05:11:31.824Z,102232.28
2022-12-03T05:13:59.829Z,102228.63
2022-12-03T05:16:26.501Z,102227.69
2022-12-03T05:18:53.128Z,102223.28
2022-12-03T05:21:19.705Z,102229.34
2022-12-03T05:23:46.463Z,102219.66
2022-12-03T05:26:13.114Z,102217.38
2022-12-03T05:28:39.981Z,102218.41
2022-12-03T05:31:08.342Z,102210.66
2022-12-03T05:33:37.308Z,102211.34
2022-12-03T05:36:08.088Z,102208.72
2022-12-03T05:38:34.795Z,102211.50
2022-12-03T05:41:01.601Z,102205.38
2022-12-03T05:43:28.207Z,102201.06
2022-12-03T05:45:54.957Z,102203.59
2022-12-03T05:48:22.921Z,102200.13
2022-12-03T05:50:49.520Z,102205.50
2022-12-03T05:53:17.778Z,102191.69
2022-12-03T05:55:44.424Z,102193.63
2022-12-03T05:58:11.968Z,102201.38
2022-12-03T06:00:42.858Z,102202.44
2022-12-03T06:03:10.572Z,102206.09
2022-12-03T06:05:38.832Z,102196.53
2022-12-03T06:08:05.529Z,102201.69
2022-12-03T06:10:32.608Z,102198.22
2022-12-03T06:12:59.287Z,102195.50
2022-12-03T06:15:25.967Z,102197.38
2022-12-03T06:17:52.609Z,102192.13
2022-12-03T06:20:20.700Z,102191.19
2022-12-03T06:22:48.833Z,102182.25
2022-12-03T06:25:16.275Z,102182.44
2022-12-03T06:27:45.782Z,102189.59
2022-12-03T06:30:14.837Z,102180.16
2022-12-03T06:32:41.624Z,102189.72
2022-12-03T06:35:09.055Z,102183.50
2022-12-03T06:37:35.660Z,102186.75
2022-12-03T06:40:04.326Z,102182.44
2022-12-03T06:42:30.969Z,102181.59
2022-12-03T06:44:57.725Z,102180.75
2022-12-03T06:47:24.375Z,102182.56
2022-12-03T06:49:51.005Z,102177.53
2022-12-03T06:52:17.675Z,102180.25
2022-12-03T06:54:44.335Z,102182.03
2022-12-03T06:57:12.317Z,102172.56
2022-12-03T06:59:39.064Z,102169.75
2022-12-03T07:02:05.748Z,102169.63
2022-12-03T07:04:32.425Z,102173.09
2022-12-03T07:06:59.071Z,102181.94
2022-12-03T07:09:25.825Z,102183.72
2022-12-03T07:11:52.660Z,102177.53
2022-12-03T07:14:20.870Z,102181.09
2022-12-03T07:16:47.782Z,102187.94
2022-12-03T07:19:14.730Z,102175.59
2022-12-03T07:21:41.643Z,102185.09
2022-12-03T07:24:08.736Z,102181.59
2022-12-03T07:26:35.390Z,102192.13
2022-12-03T07:29:02.044Z,102184.47
2022-12-03T07:31:30.454Z,102192.53
2022-12-03T07:33:57.107Z,102194.22
2022-12-03T07:36:23.812Z,102187.28
2022-12-03T07:38:50.406Z,102195.06
2022-12-03T07:41:17.028Z,102187.28
2022-12-03T07:43:45.182Z,102193.50
2022-12-03T07:46:12.066Z,102193.59
2022-12-03T07:48:40.151Z,102197.06
2022-12-03T07:51:07.078Z,102185.69
2022-12-03T07:53:35.964Z,102194.44
2022-12-03T07:56:03.480Z,102196.75
2022-12-03T07:58:30.440Z,102196.75
2022-12-03T08:00:57.286Z,102201.88
2022-12-03T08:03:24.012Z,102201.06
2022-12-03T08:05:52.040Z,102197.59
2022-12-03T08:08:18.736Z,102199.59
2022-12-03T08:10:45.417Z,102202.22
2022-12-03T08:13:14.857Z,102200.63
2022-12-03T08:15:41.947Z,102199.06
2022-12-03T08:18:15.040Z,102194.84
2022-12-03T08:20:43.255Z,102193.28
2022-12-03T08:23:16.588Z,102196.84
2022-12-03T08:25:45.013Z,102192.31
2022-12-03T08:28:14.619Z,102195.69
2022-12-03T08:30:42.436Z,102193.91
2022-12-03T08:33:24.801Z,102201.97
2022-12-03T08:35:51.610Z,102202.22
2022-12-03T08:38:22.661Z,102195.47
2022-12-03T08:40:51.314Z,102195.47
2022-12-03T08:43:20.962Z,102196.31
2022-12-03T08:45:49.764Z,102195.28
2022-12-03T08:48:34.453Z,102195.06
2022-12-03T08:51:06.340Z,102202.81
2022-12-03T08:53:36.624Z,102193.38
2022-12-03T08:56:05.809Z,102197.16
2022-12-03T08:58:38.128Z,102185.78
2022-12-03T09:01:28.870Z,102183.06
2022-12-03T09:03:59.718Z,102185.50
2022-12-03T09:06:26.420Z,102186.44
2022-12-03T09:08:54.428Z,102184.56
2022-12-03T09:11:21.063Z,102183.06
2022-12-03T09:13:47.684Z,102183.41
2022-12-03T09:16:14.321Z,102186.13
2022-12-03T09:18:41.296Z,102174.88
2022-12-03T09:21:07.867Z,102180.88
2022-12-03T09:23:34.545Z,102176.34
2022-12-03T09:26:02.629Z,102176.03
2022-12-03T09:28:29.381Z,102176.88
2022-12-03T09:30:55.947Z,102191.06
2022-12-03T09:33:22.608Z,102185.69
2022-12-03T09:35:49.243Z,102179.50
2022-12-03T09:38:15.882Z,102188.97
2022-12-03T09:40:42.679Z,102180.34
2022-12-03T09:43:12.161Z,102186.44
2022-12-03T09:45:39.014Z,102185.50
2022-12-03T09:48:05.824Z,102181.81
2022-12-03T09:50:32.700Z,102185.50
2022-12-03T09:53:03.685Z,102180.34
2022-12-03T09:55:31.120Z,102186.63
2022-12-03T09:57:58.431Z,102184.13
2022-12-03T10:00:28.384Z,102172.56
2022-12-03T10:02:57.975Z,102170.78
2022-12-03T10:05:24.762Z,102171.72
2022-12-03T10:07:52.559Z,102177.81
2022-12-03T10:10:21.238Z,102167.31
2022-12-03T10:12:48.804Z,102166.47
2022-12-03T10:15:18.913Z,102176.03
2022-12-03T10:17:49.474Z,102167.31
2022-12-03T10:20:18.202Z,102173.63
2022-12-03T10:22:45.160Z,102175.50
2022-12-03T10:25:13.965Z,102172.78
2022-12-03T10:27:41.593Z,102174.03
2022-12-03T10:30:17.553Z,102164.69
2022-12-03T10:32:47.563Z,102158.56
2022-12-03T10:35:16.550Z,102157.63
2022-12-03T10:38:00.612Z,102150.59
2022-12-03T10:40:28.831Z,102156.03
2022-12-03T10:43:14.223Z,102145.63
2022-12-03T10:45:41.612Z,102148.16
2022-12-03T10:48:14.512Z,102138.59
2022-12-03T10:50:48.758Z,102140.38
2022-12-03T10:53:15.875Z,102136.09
2022-12-03T10:55:43.946Z,102128.31
2022-12-03T10:58:20.187Z,102128.31
2022-12-03T11:00:47.036Z,102122.97
2022-12-03T11:03:19.535Z,102120.22
2022-12-03T11:05:46.512Z,102108.75
2022-12-03T11:08:18.656Z,102113.81
2022-12-03T11:10:45.807Z,102108.56
2022-12-03T11:13:44.709Z,102117.28
2022-12-03T11:16:12.331Z,102106.88
2022-12-03T11:19:00.878Z,102100.88
2022-12-03T11:21:27.977Z,102098.50
2022-12-03T11:24:20.679Z,102094.19
2022-12-03T11:27:07.373Z,102088.69
2022-12-03T11:30:01.554Z,102091.44
2022-12-03T11:33:07.996Z,102081.13
2022-12-03T11:36:09.710Z,102085.44
2022-12-03T11:38:53.622Z,102079.97
2022-12-03T11:41:26.406Z,102082.59
2022-12-03T11:44:05.826Z,102079.97
2022-12-03T11:46:41.979Z,102074.94
2022-12-03T11:49:29.815Z,102081.66
2022-12-03T11:51:58.829Z,102073.78
2022-12-03T11:54:25.931Z,102072.84
2022-12-03T11:56:54.369Z,102064.00
2022-12-03T11:59:21.029Z,102066.63
2022-12-03T12:01:47.864Z,102061.19
2022-12-03T12:04:32.203Z,102059.59
2022-12-03T12:07:00.362Z,102054.25
2022-12-03T12:09:50.615Z,102061.81
2022-12-03T12:12:28.086Z,102052.88
2022-12-03T12:14:54.948Z,102053.91
2022-12-03T12:17:35.727Z,102055.69
2022-12-03T12:20:27.835Z,102048.91
2022-12-03T12:22:56.193Z,102048.16
2022-12-03T12:25:40.710Z,102048.44
2022-12-03T12:28:08.419Z,102042.38
2022-12-03T12:30:35.435Z,102034.50
2022-12-03T12:33:12.037Z,102034.50
2022-12-03T12:35:38.790Z,102031.03
2022-12-03T12:38:15.118Z,102026.72
2022-12-03T12:40:45.228Z,102025.78
2022-12-03T12:43:24.161Z,102026.72
2022-12-03T12:45:53.737Z,102024.00
2022-12-03T12:48:26.025Z,102014.53
2022-12-03T12:50:58.823Z,102013.78
2022-12-03T12:53:28.308Z,102016.53
2022-12-03T12:55:57.242Z,102007.19
2022-12-03T12:58:24.550Z,102006.44
2022-12-03T13:00:53.081Z,102005.75
2022-12-03T13:03:22.852Z,102008.22
2022-12-03T13:05:51.613Z,102010.75
2022-12-03T13:08:25.533Z,102006.78
2022-12-03T13:10:55.111Z,102002.47
2022-12-03T13:13:30.378Z,102006.88
2022-12-03T13:16:03.988Z,102007.22
2022-12-03T13:18:34.644Z,102004.34
2022-12-03T13:21:13.314Z,102005.09
2022-12-03T13:23:40.337Z,102001.53
2022-12-03T13:26:32.865Z,102011.38
2022-12-03T13:29:11.006Z,102001.00
2022-12-03T13:31:43.416Z,101997.00
2022-12-03T13:34:17.203Z,101995.13
2022-12-03T13:36:45.868Z,101991.56
2022-12-03T13:39:19.863Z,101990.50
2022-12-03T13:42:07.508Z,101990.38
2022-12-03T13:44:37.287Z,101989.53
2022-12-03T13:47:13.319Z,101994.78
2022-12-03T13:49:40.006Z,101994.69
2022-12-03T13:52:12.761Z,101987.44
2022-12-03T13:54:57.114Z,101976.94
2022-12-03T13:57:25.129Z,101980.41
2022-12-03T13:59:52.345Z,101976.00
2022-12-03T14:02:19.218Z,101969.38
2022-12-03T14:04:45.940Z,101977.38
2022-12-03T14:07:12.549Z,101973.91
2022-12-03T14:09:39.195Z,101976.63
2022-12-03T14:12:24.554Z,101966.25
2022-12-03T14:14:52.577Z,101965.41
2022-12-03T14:17:19.339Z,101967.06
2022-12-03T14:19:46.030Z,101970.03
2022-12-03T14:22:12.792Z,101971.59
2022-12-03T14:24:42.345Z,101964.78
2022-12-03T14:27:08.919Z,101970.88
2022-12-03T14:29:35.559Z,101965.63
2022-12-03T14:32:03.614Z,101971.47
2022-12-03T14:34:30.440Z,101969.69
2022-12-03T14:36:57.138Z,101973.16
2022-12-03T14:39:23.783Z,101969.69
2022-12-03T14:42:08.997Z,101974.94
2022-12-03T14:44:35.813Z,101961.81
2022-12-03T14:47:03.995Z,101959.31
2022-12-03T14:49:30.648Z,101957.63
2022-12-03T14:51:57.298Z,101960.56
2022-12-03T14:54:24.090Z,101964.13
2022-12-03T14:56:50.703Z,101964.13
2022-12-03T14:59:18.526Z,101964.97
2022-12-03T15:01:46.653Z,101970.22
2022-12-03T15:04:14.733Z,101957.34
2022-12-03T15:06:41.403Z,101965.22
2022-12-03T15:09:08.082Z,101965.22
2022-12-03T15:11:35.278Z,101957.53
2022-12-03T15:14:02.035Z,101962.38
2022-12-03T15:16:28.807Z,101965.09
2022-12-03T15:18:55.463Z,101958.81
2022-12-03T15:21:23.448Z,101962.13
2022-12-03T15:23:50.079Z,101955.94
2022-12-03T15:26:16.740Z,101951.63
2022-12-03T15:28:48.063Z,101960.59
2022-12-03T15:31:15.107Z,101958.81
2022-12-03T15:33:41.720Z,101958.91
2022-12-03T15:36:09.145Z,101959.75
2022-12-03T15:38:37.094Z,101957.22
2022-12-03T15:41:20.971Z,101955.63
2022-12-03T15:43:47.723Z,101956.47
2022-12-03T15:46:15.591Z,101965.94
2022-12-03T15:48:42.707Z,101969.50
2022-12-03T15:51:09.308Z,101961.63
2022-12-03T15:53:37.286Z,101964.25
2022-12-03T15:56:04.410Z,101963.22
2022-12-03T15:58:31.102Z,101971.81
2022-12-03T16:00:57.976Z,101968.56
2022-12-03T16:03:25.664Z,101968.56
2022-12-03T16:05:52.382Z,101965.19
2022-12-03T16:08:19.216Z,101959.84
2022-12-03T16:10:47.349Z,101963.41
2022-12-03T16:13:14.104Z,101957.31
2022-12-03T16:15:40.882Z,101956.69
2022-12-03T16:18:07.543Z,101965.50
2022-12-03T16:20:34.408Z,101953.44
2022-12-03T16:23:01.041Z,101959.53
2022-12-03T16:25:27.673Z,101946.50
2022-12-03T16:27:56.543Z,101957.00
2022-12-03T16:30:24.910Z,101949.97
2022-12-03T16:32:51.574Z,101960.38
2022-12-03T16:35:18.228Z,101956.91
2022-12-03T16:37:44.932Z,101959.63
2022-12-03T16:40:12.225Z,101951.75
2022-12-03T16:42:38.897Z,101959.00
2022-12-03T16:45:08.927Z,101953.84
2022-12-03T16:47:35.539Z,101947.88
2022-12-03T16:50:03.211Z,101953.84
2022-12-03T16:52:29.813Z,101945.25
2022-12-03T16:54:56.404Z,101944.41
2022-12-03T16:57:23.000Z,101946.09
2022-12-03T16:59:49.603Z,101941.69
2022-12-03T17:02:17.708Z,101938.22
2022-12-03T17:04:44.380Z,101938.13
2022-12-03T17:07:11.008Z,101942.53
2022-12-03T17:09:38.327Z,101941.56
2022-12-03T17:12:05.134Z,101950.47
2022-12-03T17:14:33.587Z,101944.41
2022-12-03T17:17:00.424Z,101941.69
2022-12-03T17:19:28.419Z,101939.91
2022-12-03T17:21:55.062Z,101938.84
2022-12-03T17:24:21.730Z,101948.28
2022-12-03T17:26:48.407Z,101946.50
2022-12-03T17:29:15.088Z,101948.28
2022-12-03T17:31:42.750Z,101950.91
2022-12-03T17:34:09.794Z,101951.88
2022-12-03T17:36:37.745Z,101946.63
2022-12-03T17:39:04.353Z,101938.13
2022-12-03T17:41:30.971Z,101945.25
2022-12-03T17:43:57.569Z,101943.59
2022-12-03T17:46:24.244Z,101932.25
2022-12-03T17:48:50.840Z,101938.34
2022-12-03T17:51:19.290Z,101929.91
2022-12-03T17:53:47.289Z,101932.63
2022-12-03T17:56:14.296Z,101919.66
2022-12-03T17:58:41.200Z,101919.66
2022-12-03T18:01:10.364Z,101928.22
2022-12-03T18:03:37.599Z,101926.59
2022-12-03T18:06:04.682Z,101924.78
2022-12-03T18:08:31.333Z,101924.66
2022-12-03T18:10:59.526Z,101923.00
2022-12-03T18:13:28.201Z,101922.78
2022-12-03T18:15:55.083Z,101923.63
2022-12-03T18:18:21.789Z,101924.47
2022-12-03T18:20:48.431Z,101928.88
2022-12-03T18:23:15.208Z,101924.47
2022-12-03T18:25:42.380Z,101919.22
2022-12-03T18:28:10.473Z,101919.22
2022-12-03T18:30:37.130Z,101923.22
2022-12-03T18:33:03.707Z,101920.59
2022-12-03T18:35:30.380Z,101916.09
2022-12-03T18:37:57.140Z,101918.06
2022-12-03T18:40:25.168Z,101911.38
2022-12-03T18:42:51.763Z,101909.59
2022-12-03T18:45:20.002Z,101912.22
2022-12-03T18:47:47.137Z,101906.22
2022-12-03T18:50:14.326Z,101912.31
2022-12-03T18:52:42.000Z,101909.78
2022-12-03T18:55:16.463Z,101910.72
2022-12-03T18:57:43.030Z,101908.19
2022-12-03T19:00:13.642Z,101906.41
2022-12-03T19:05:28.724Z,101906.63
2022-12-03T19:07:56.483Z,101909.25
2022-12-03T19:10:24.597Z,101909.13
2022-12-03T19:12:51.354Z,101909.88
2022-12-03T19:15:18.253Z,101908.09
2022-12-03T19:17:49.547Z,101910.72
2022-12-03T19:20:16.452Z,101910.72
2022-12-03T19:22:43.080Z,101914.19
2022-12-03T19:25:09.982Z,101910.72
2022-12-03T19:27:36.645Z,101914.19
2022-12-03T19:30:03.682Z,101909.78
2022-12-03T19:32:30.337Z,101906.31
2022-12-03T19:34:58.292Z,101907.16
2022-12-03T19:37:24.973Z,101912.59
2022-12-03T19:39:53.218Z,101908.41
2022-12-03T19:42:19.985Z,101902.44
2022-12-03T19:44:46.661Z,101904.00
2022-12-03T19:47:13.249Z,101903.28
2022-12-03T19:49:39.909Z,101902.44
2022-12-03T19:52:07.934Z,101896.34
2022-12-03T19:54:34.773Z,101895.41
2022-12-03T19:57:01.415Z,101896.34
2022-12-03T19:59:28.011Z,101890.34
2022-12-03T20:01:54.701Z,101885.00
2022-12-03T20:04:21.440Z,101880.81
2022-12-03T20:06:48.344Z,101883.44
2022-12-03T20:09:17.799Z,101887.94
2022-12-03T20:11:45.951Z,101887.00
2022-12-03T20:14:14.962Z,101878.41
2022-12-03T20:16:41.945Z,101877.66
2022-12-03T20:19:12.092Z,101877.66
2022-12-03T20:21:39.814Z,101867.16
2022-12-03T20:24:07.867Z,101869.69
2022-12-03T20:26:35.921Z,101879.34
2022-12-03T20:29:02.583Z,101879.56
2022-12-03T20:31:30.794Z,101882.28
2022-12-03T20:34:00.230Z,101883.97
2022-12-03T20:36:28.498Z,101880.50
2022-12-03T20:38:56.319Z,101883.13
2022-12-03T20:41:23.188Z,101883.22
2022-12-03T20:43:51.562Z,101877.13
2022-12-03T20:46:20.819Z,101878.91
2022-12-03T20:48:48.759Z,101867.59
2022-12-03T20:51:17.394Z,101864.44
2022-12-03T20:53:44.451Z,101871.56
2022-12-03T20:56:15.837Z,101868.19
2022-12-03T20:58:42.772Z,101870.81
2022-12-03T21:01:16.424Z,101861.09
2022-12-03T21:03:43.506Z,101866.31
2022-12-03T21:06:10.357Z,101862.13
2022-12-03T21:08:41.661Z,101859.41
2022-12-03T21:11:09.855Z,101853.22
2022-12-03T21:13:36.506Z,101857.31
2022-12-03T21:16:05.975Z,101855.41
2022-12-03T21:18:34.272Z,101859.63
2022-12-03T21:21:02.429Z,101851.75
2022-12-03T21:23:29.790Z,101854.16
2022-12-03T21:26:02.202Z,101843.78
2022-12-03T21:28:28.968Z,101846.41
2022-12-03T21:31:00.229Z,101846.41
2022-12-03T21:33:27.008Z,101843.78
2022-12-03T21:35:55.233Z,101849.97
2022-12-03T21:38:22.313Z,101851.00
2022-12-03T21:40:49.026Z,101851.84
2022-12-03T21:43:15.709Z,101849.13
2022-12-03T21:45:42.716Z,101855.22
2022-12-03T21:48:09.643Z,101851.66
2022-12-03T21:50:36.296Z,101857.75
2022-12-03T21:53:04.494Z,101855.13
2022-12-03T21:55:31.276Z,101855.13
2022-12-03T21:57:58.520Z,101856.78
2022-12-03T22:00:25.407Z,101855.22
2022-12-03T22:02:52.513Z,101849.22
2022-12-03T22:05:19.270Z,101861.31
2022-12-03T22:07:45.984Z,101851.00
2022-12-03T22:10:14.227Z,101851.00
2022-12-03T22:12:41.940Z,101854.28
2022-12-03T22:15:13.531Z,101843.06
2022-12-03T22:17:44.923Z,101841.16
2022-12-03T22:20:12.400Z,101844.63
2022-12-03T22:22:38.984Z,101844.50
2022-12-03T22:25:05.866Z,101836.44
2022-12-03T22:27:33.963Z,101839.91
2022-12-03T22:30:00.749Z,101833.81
2022-12-03T22:32:27.399Z,101828.56
2022-12-03T22:34:54.103Z,101834.66
2022-12-03T22:37:20.696Z,101833.72
2022-12-03T22:39:47.313Z,101828.69
2022-12-03T22:42:14.125Z,101827.72
2022-12-03T22:44:42.089Z,101826.06
2022-12-03T22:47:08.675Z,101827.00
2022-12-03T22:49:35.279Z,101832.03
2022-12-03T22:52:01.912Z,101832.13
2022-12-03T22:54:28.587Z,101821.88
2022-12-03T22:56:55.154Z,101826.16
2022-12-03T22:59:21.806Z,101822.69
2022-12-03T23:01:49.779Z,101822.69
2022-12-03T23:04:16.505Z,101827.00
2022-12-03T23:06:44.900Z,101825.31
2022-12-03T23:09:11.624Z,101825.94
2022-12-03T23:11:38.427Z,101824.38
2022-12-03T23:14:05.113Z,101817.56
2022-12-03T23:16:33.763Z,101826.06
2022-12-03T23:19:03.853Z,101823.53
2022-12-03T23:21:32.552Z,101821.75
2022-12-03T23:24:00.166Z,101828.78
2022-12-03T23:26:27.573Z,101821.88
2022-12-03T23:28:54.478Z,101823.53
2022-12-03T23:31:23.824Z,101820.72
2022-12-03T23:33:52.058Z,101820.72
2022-12-03T23:36:20.670Z,101821.66
2022-12-03T23:38:47.392Z,101816.31
2022-12-03T23:41:16.198Z,101813.78
2022-12-03T23:43:43.706Z,101821.66
2022-12-03T23:46:11.954Z,101821.66
2022-12-03T23:48:38.619Z,101807.78
2022-12-03T23:51:06.384Z,101813.28
2022-12-03T23:53:35.055Z,101809.72
2022-12-03T23:56:05.075Z,101815.56
2022-12-03T23:58:31.696Z,101816.22
